createdAt,value
2022-10-27T00:00:02.962Z,5.85
2022-10-27T00:02:04.594Z,8.18
2022-10-27T00:04:06.187Z,2.33
2022-10-27T00:06:08.379Z,2.78
2022-10-27T00:08:17.031Z,7.22
2022-10-27T00:10:18.775Z,4.85
2022-10-27T00:12:20.362Z,2.50
2022-10-27T00:14:22.277Z,3.50
2022-10-27T00:16:23.919Z,4.25
2022-10-27T00:18:26.195Z,4.15
2022-10-27T00:20:27.783Z,2.58
2022-10-27T00:22:29.459Z,3.35
2022-10-27T00:24:31.045Z,4.38
2022-10-27T00:26:32.620Z,2.30
2022-10-27T00:28:34.903Z,4.20
2022-10-27T00:30:36.515Z,1.90
2022-10-27T00:32:38.080Z,5.15
2022-10-27T00:34:39.829Z,4.20
2022-10-27T00:36:41.451Z,2.42
2022-10-27T00:38:43.833Z,4.57
2022-10-27T00:40:45.414Z,2.20
2022-10-27T00:42:47.096Z,2.38
2022-10-27T00:44:49.225Z,2.97
2022-10-27T00:46:50.887Z,2.58
2022-10-27T00:48:56.451Z,1.80
2022-10-27T00:51:01.212Z,3.03
2022-10-27T00:53:04.007Z,2.53
2022-10-27T00:55:33.231Z,2.40
2022-10-27T00:57:36.309Z,3.22
2022-10-27T00:59:38.810Z,4.28
2022-10-27T01:01:41.826Z,2.97
2022-10-27T01:03:44.795Z,2.60
2022-10-27T01:05:46.562Z,4.05
2022-10-27T01:07:49.801Z,4.57
2022-10-27T01:09:51.426Z,2.88
2022-10-27T01:11:53.035Z,3.53
2022-10-27T01:13:54.988Z,2.35
2022-10-27T01:16:26.504Z,2.42
2022-10-27T01:18:48.307Z,2.72
2022-10-27T01:21:24.138Z,2.25
2022-10-27T01:23:56.075Z,2.25
2022-10-27T01:26:26.936Z,3.38
2022-10-27T01:28:52.808Z,2.05
2022-10-27T01:31:10.484Z,4.10
2022-10-27T01:33:16.644Z,2.40
2022-10-27T01:35:42.800Z,2.30
2022-10-27T01:38:07.096Z,1.98
2022-10-27T01:40:11.975Z,3.55
2022-10-27T01:42:28.452Z,2.00
2022-10-27T01:44:35.184Z,3.05
2022-10-27T01:46:37.037Z,5.25
2022-10-27T01:48:39.456Z,3.90
2022-10-27T01:50:50.953Z,2.33
2022-10-27T01:53:02.096Z,2.95
2022-10-27T01:55:04.567Z,3.10
2022-10-27T01:57:37.765Z,3.15
2022-10-27T01:59:55.115Z,1.83
2022-10-27T02:02:10.623Z,2.33
2022-10-27T02:04:44.605Z,3.88
2022-10-27T02:06:55.515Z,2.20
2022-10-27T02:09:25.350Z,2.80
2022-10-27T02:11:29.229Z,2.70
2022-10-27T02:13:35.275Z,2.60
2022-10-27T02:15:46.772Z,1.90
2022-10-27T02:17:51.043Z,1.80
2022-10-27T02:19:54.641Z,3.55
2022-10-27T02:21:59.791Z,3.03
2022-10-27T02:24:01.855Z,2.33
2022-10-27T02:26:27.623Z,2.50
2022-10-27T02:28:37.105Z,1.90
2022-10-27T02:30:39.968Z,2.22
2022-10-27T02:32:42.331Z,2.90
2022-10-27T02:34:45.508Z,2.88
2022-10-27T02:36:47.657Z,2.00
2022-10-27T02:38:49.328Z,2.42
2022-10-27T02:40:51.146Z,2.10
2022-10-27T02:42:52.957Z,2.88
2022-10-27T02:44:54.811Z,1.88
2022-10-27T02:46:57.842Z,2.33
2022-10-27T02:49:00.430Z,2.28
2022-10-27T02:51:02.028Z,2.92
2022-10-27T02:53:03.649Z,1.60
2022-10-27T02:55:05.742Z,2.50
2022-10-27T02:57:07.462Z,4.47
2022-10-27T02:59:09.060Z,5.82
2022-10-27T03:01:10.778Z,3.80
2022-10-27T03:03:12.501Z,2.67
2022-10-27T03:05:14.652Z,1.92
2022-10-27T03:07:16.363Z,1.85
2022-10-27T03:09:17.952Z,2.83
2022-10-27T03:11:19.587Z,1.95
2022-10-27T03:13:21.231Z,3.28
2022-10-27T03:15:22.816Z,2.67
2022-10-27T03:17:24.408Z,1.92
2022-10-27T03:19:26.060Z,2.47
2022-10-27T03:21:27.692Z,3.13
2022-10-27T03:23:29.288Z,2.08
2022-10-27T03:25:31.037Z,1.63
2022-10-27T03:27:33.008Z,2.00
2022-10-27T03:29:34.695Z,2.17
2022-10-27T03:31:36.382Z,2.05
2022-10-27T03:33:38.032Z,2.28
2022-10-27T03:35:39.683Z,2.08
2022-10-27T03:37:41.515Z,2.83
2022-10-27T03:39:43.101Z,2.15
2022-10-27T03:41:44.757Z,3.13
2022-10-27T03:43:46.376Z,4.30
2022-10-27T03:45:55.097Z,4.85
2022-10-27T03:48:20.423Z,2.50
2022-10-27T03:50:22.011Z,4.05
2022-10-27T03:52:23.653Z,2.00
2022-10-27T03:54:25.283Z,2.03
2022-10-27T03:56:26.957Z,4.93
2022-10-27T03:58:28.552Z,2.17
2022-10-27T04:00:31.992Z,1.85
2022-10-27T04:02:33.584Z,2.88
2022-10-27T04:04:35.206Z,2.05
2022-10-27T04:06:36.813Z,4.53
2022-10-27T04:08:38.445Z,2.42
2022-10-27T04:10:40.048Z,2.63
2022-10-27T04:12:52.278Z,2.10
2022-10-27T04:14:54.045Z,6.13
2022-10-27T04:16:55.629Z,5.70
2022-10-27T04:18:57.251Z,6.47
2022-10-27T04:21:03.558Z,5.03
2022-10-27T04:23:05.211Z,10.88
2022-10-27T04:25:07.509Z,5.80
2022-10-27T04:27:09.445Z,8.43
2022-10-27T04:29:11.103Z,11.70
2022-10-27T04:31:13.404Z,6.72
2022-10-27T04:33:15.363Z,10.90
2022-10-27T04:35:17.056Z,6.82
2022-10-27T04:37:18.661Z,8.77
2022-10-27T04:39:20.271Z,4.82
2022-10-27T04:41:21.875Z,13.10
2022-10-27T04:43:23.493Z,8.80
2022-10-27T04:45:25.069Z,9.98
2022-10-27T04:47:26.660Z,7.00
2022-10-27T04:49:28.284Z,11.10
2022-10-27T04:51:29.876Z,8.43
2022-10-27T04:53:31.473Z,5.25
2022-10-27T04:55:33.433Z,8.07
2022-10-27T04:57:35.684Z,7.68
2022-10-27T04:59:37.293Z,6.45
2022-10-27T05:01:39.446Z,13.18
2022-10-27T05:03:41.519Z,8.45
2022-10-27T05:05:43.130Z,11.80
2022-10-27T05:07:52.060Z,6.45
2022-10-27T05:09:53.669Z,7.10
2022-10-27T05:11:55.312Z,4.03
2022-10-27T05:13:56.900Z,7.90
2022-10-27T05:16:03.114Z,12.70
2022-10-27T05:18:06.870Z,9.23
2022-10-27T05:20:11.618Z,10.75
2022-10-27T05:22:13.249Z,5.00
2022-10-27T05:24:15.048Z,8.80
2022-10-27T05:26:16.695Z,8.43
2022-10-27T05:28:18.314Z,9.18
2022-10-27T05:30:19.902Z,4.40
2022-10-27T05:32:21.483Z,11.77
2022-10-27T05:34:23.200Z,5.47
2022-10-27T05:36:24.906Z,5.53
2022-10-27T05:38:26.505Z,6.05
2022-10-27T05:40:34.168Z,6.93
2022-10-27T05:42:35.751Z,11.52
2022-10-27T05:44:37.360Z,6.82
2022-10-27T05:46:39.021Z,5.70
2022-10-27T05:48:40.629Z,8.13
2022-10-27T05:52:48.973Z,8.15
2022-10-27T05:54:50.735Z,8.65
2022-10-27T05:56:52.326Z,5.90
2022-10-27T05:58:54.024Z,5.45
2022-10-27T06:00:59.421Z,4.88
2022-10-27T06:03:02.964Z,6.75
2022-10-27T06:05:04.846Z,7.18
2022-10-27T06:07:06.580Z,10.93
2022-10-27T06:09:08.197Z,7.35
2022-10-27T06:11:09.825Z,11.07
2022-10-27T06:13:16.009Z,6.70
2022-10-27T06:15:17.608Z,7.15
2022-10-27T06:17:25.858Z,5.53
2022-10-27T06:19:27.460Z,3.63
2022-10-27T06:21:29.060Z,4.47
2022-10-27T06:23:30.730Z,6.28
2022-10-27T06:25:32.351Z,7.30
2022-10-27T06:27:33.938Z,8.65
2022-10-27T06:29:35.549Z,6.78
2022-10-27T06:31:38.218Z,5.45
2022-10-27T06:33:39.799Z,5.40
2022-10-27T06:35:41.439Z,7.63
2022-10-27T06:37:46.943Z,4.18
2022-10-27T06:39:48.543Z,3.20
2022-10-27T06:41:50.678Z,4.35
2022-10-27T06:43:52.395Z,5.57
2022-10-27T06:45:54.907Z,6.57
2022-10-27T06:47:58.964Z,3.67
2022-10-27T06:50:00.751Z,8.13
2022-10-27T06:52:02.345Z,5.05
2022-10-27T06:54:04.033Z,3.72
2022-10-27T06:56:05.788Z,6.15
2022-10-27T06:58:07.440Z,4.45
2022-10-27T07:00:10.698Z,3.65
2022-10-27T07:02:12.711Z,3.22
2022-10-27T07:04:14.461Z,5.72
2022-10-27T07:06:16.074Z,4.95
2022-10-27T07:08:17.717Z,2.30
2022-10-27T07:10:20.565Z,4.57
2022-10-27T07:12:22.259Z,5.50
2022-10-27T07:14:23.876Z,3.22
2022-10-27T07:16:25.536Z,4.72
2022-10-27T07:18:27.427Z,3.13
2022-10-27T07:20:30.886Z,6.20
2022-10-27T07:22:32.609Z,4.70
2022-10-27T07:24:34.225Z,5.60
2022-10-27T07:26:35.849Z,4.97
2022-10-27T07:28:37.639Z,5.78
2022-10-27T07:30:42.456Z,7.43
2022-10-27T07:32:44.047Z,6.32
2022-10-27T07:34:45.641Z,5.25
2022-10-27T07:36:47.249Z,6.10
2022-10-27T07:38:48.832Z,7.80
2022-10-27T07:40:50.466Z,5.25
2022-10-27T07:42:56.451Z,4.28
2022-10-27T07:44:58.604Z,4.70
2022-10-27T07:47:00.216Z,5.72
2022-10-27T07:49:01.801Z,9.15
2022-10-27T07:51:03.478Z,8.57
2022-10-27T07:53:05.120Z,7.38
2022-10-27T07:55:08.460Z,9.00
2022-10-27T07:57:12.020Z,8.90
2022-10-27T08:01:20.300Z,4.68
2022-10-27T08:03:25.989Z,4.50
2022-10-27T08:05:29.440Z,8.07
2022-10-27T08:09:33.640Z,8.65
2022-10-27T08:11:35.304Z,4.05
2022-10-27T08:13:36.874Z,4.85
2022-10-27T08:15:39.995Z,5.80
2022-10-27T08:17:41.626Z,8.13
2022-10-27T08:19:43.429Z,7.57
2022-10-27T08:21:45.049Z,5.00
2022-10-27T08:23:47.020Z,7.55
2022-10-27T08:25:48.687Z,7.60
2022-10-27T08:27:50.712Z,34.85
2022-10-27T08:29:52.497Z,18.60
2022-10-27T08:31:54.233Z,19.20
2022-10-27T08:33:55.824Z,12.38
2022-10-27T08:36:00.400Z,27.02
2022-10-27T08:38:13.774Z,15.02
2022-10-27T08:40:15.696Z,17.75
2022-10-27T08:42:49.353Z,16.40
2022-10-27T08:44:59.620Z,12.48
2022-10-27T08:47:05.659Z,15.03
2022-10-27T08:49:21.204Z,12.48
2022-10-27T08:53:35.755Z,10.65
2022-10-27T08:55:49.362Z,15.25
2022-10-27T08:58:21.084Z,9.27
2022-10-27T09:00:25.052Z,10.57
2022-10-27T09:02:51.496Z,21.27
2022-10-27T09:05:11.353Z,12.98
2022-10-27T09:07:42.795Z,12.20
2022-10-27T09:09:58.119Z,14.65
2022-10-27T09:12:02.823Z,10.95
2022-10-27T09:14:23.609Z,9.95
2022-10-27T09:16:53.276Z,9.10
2022-10-27T09:19:01.169Z,11.25
2022-10-27T09:21:17.853Z,12.05
2022-10-27T09:23:24.357Z,10.05
2022-10-27T09:25:26.123Z,12.10
2022-10-27T09:27:27.752Z,7.57
2022-10-27T09:29:30.629Z,8.85
2022-10-27T09:31:47.104Z,15.48
2022-10-27T09:34:00.128Z,7.65
2022-10-27T09:36:14.387Z,8.35
2022-10-27T09:38:21.064Z,26.20
2022-10-27T09:40:23.953Z,7.85
2022-10-27T09:42:26.967Z,10.57
2022-10-27T09:44:29.435Z,13.90
2022-10-27T09:46:32.582Z,8.25
2022-10-27T09:48:35.335Z,14.02
2022-10-27T09:50:52.936Z,18.98
2022-10-27T09:52:54.562Z,14.85
2022-10-27T09:54:57.553Z,10.35
2022-10-27T09:57:19.155Z,16.77
2022-10-27T09:59:22.860Z,12.48
2022-10-27T10:01:26.859Z,15.45
2022-10-27T10:03:28.633Z,7.38
2022-10-27T10:05:36.150Z,10.65
2022-10-27T10:07:40.265Z,7.05
2022-10-27T10:09:41.901Z,7.88
2022-10-27T10:11:43.542Z,10.80
2022-10-27T10:13:57.757Z,9.98
2022-10-27T10:16:17.712Z,10.65
2022-10-27T10:18:28.442Z,7.50
2022-10-27T10:20:39.293Z,8.25
2022-10-27T10:22:43.123Z,12.00
2022-10-27T10:24:46.827Z,7.38
2022-10-27T10:26:51.927Z,6.80
2022-10-27T10:28:56.975Z,9.63
2022-10-27T10:30:59.896Z,13.75
2022-10-27T10:33:04.904Z,10.60
2022-10-27T10:35:44.109Z,7.07
2022-10-27T10:37:46.738Z,6.93
2022-10-27T10:39:48.371Z,7.22
2022-10-27T10:42:13.605Z,9.07
2022-10-27T10:44:16.793Z,14.90
2022-10-27T10:46:23.721Z,10.57
2022-10-27T10:48:46.124Z,11.60
2022-10-27T10:50:50.239Z,10.25
2022-10-27T10:52:57.392Z,7.55
2022-10-27T10:55:08.143Z,5.93
2022-10-27T10:57:45.828Z,10.63
2022-10-27T10:59:48.905Z,6.63
2022-10-27T11:02:04.985Z,6.03
2022-10-27T11:04:06.934Z,7.10
2022-10-27T11:06:17.823Z,8.68
2022-10-27T11:08:22.577Z,7.35
2022-10-27T11:10:31.622Z,5.05
2022-10-27T11:13:04.360Z,4.80
2022-10-27T11:15:23.755Z,9.07
2022-10-27T11:17:27.348Z,7.53
2022-10-27T11:19:34.684Z,8.50
2022-10-27T11:21:58.992Z,10.10
2022-10-27T11:24:28.292Z,7.55
2022-10-27T11:26:36.552Z,5.03
2022-10-27T11:28:54.009Z,6.55
2022-10-27T11:31:09.248Z,5.78
2022-10-27T11:33:40.337Z,5.47
2022-10-27T11:36:16.021Z,9.00
2022-10-27T11:38:48.469Z,4.93
2022-10-27T11:41:16.727Z,4.00
2022-10-27T11:43:51.935Z,7.50
2022-10-27T11:46:37.261Z,7.32
2022-10-27T11:48:51.684Z,4.75
2022-10-27T11:51:19.112Z,7.32
2022-10-27T11:53:20.786Z,6.30
2022-10-27T11:55:29.076Z,6.03
2022-10-27T11:57:44.626Z,3.72
2022-10-27T12:00:04.089Z,5.15
2022-10-27T12:02:48.053Z,6.03
2022-10-27T12:04:56.405Z,3.42
2022-10-27T12:07:16.583Z,4.53
2022-10-27T12:09:46.030Z,5.70
2022-10-27T12:12:01.819Z,4.25
2022-10-27T12:14:42.775Z,5.45
2022-10-27T12:16:47.852Z,6.47
2022-10-27T12:18:58.775Z,3.97
2022-10-27T12:23:14.209Z,3.90
2022-10-27T12:27:25.393Z,5.05
2022-10-27T12:29:37.061Z,6.38
2022-10-27T12:32:01.337Z,4.25
2022-10-27T12:34:04.375Z,4.88
2022-10-27T12:36:45.538Z,2.97
2022-10-27T12:39:04.109Z,6.80
2022-10-27T12:41:35.977Z,3.70
2022-10-27T12:44:04.808Z,3.13
2022-10-27T12:46:21.976Z,4.68
2022-10-27T12:48:42.527Z,3.17
2022-10-27T12:51:17.137Z,7.20
2022-10-27T12:53:36.898Z,3.90
2022-10-27T12:56:00.864Z,5.45
2022-10-27T12:58:09.353Z,5.25
2022-10-27T13:00:16.242Z,5.88
2022-10-27T13:02:23.207Z,3.42
2022-10-27T13:04:43.169Z,3.15
2022-10-27T13:07:01.613Z,4.15
2022-10-27T13:09:21.415Z,3.53
2022-10-27T13:11:26.085Z,3.65
2022-10-27T13:14:02.087Z,2.20
2022-10-27T13:16:10.175Z,5.53
2022-10-27T13:18:27.909Z,4.35
2022-10-27T13:20:43.396Z,3.00
2022-10-27T13:23:00.676Z,3.67
2022-10-27T13:27:47.327Z,2.85
2022-10-27T13:29:54.938Z,2.70
2022-10-27T13:32:26.477Z,4.07
2022-10-27T13:34:28.131Z,4.65
2022-10-27T13:36:30.584Z,5.78
2022-10-27T13:38:32.256Z,4.43
2022-10-27T13:40:38.092Z,1.92
2022-10-27T13:42:39.721Z,2.17
2022-10-27T13:44:41.889Z,3.08
2022-10-27T13:47:02.625Z,5.30
2022-10-27T13:49:04.219Z,5.45
2022-10-27T13:51:48.319Z,3.85
2022-10-27T13:53:57.061Z,5.82
2022-10-27T13:56:30.480Z,5.38
2022-10-27T13:58:53.709Z,3.40
2022-10-27T14:01:19.138Z,5.70
2022-10-27T14:03:36.383Z,3.10
2022-10-27T14:07:53.648Z,2.08
2022-10-27T14:09:55.573Z,2.75
2022-10-27T14:12:01.045Z,2.13
2022-10-27T14:14:07.522Z,3.47
2022-10-27T14:16:32.140Z,2.05
2022-10-27T14:18:38.005Z,3.50
2022-10-27T14:20:41.084Z,2.15
2022-10-27T14:22:46.891Z,3.85
2022-10-27T14:24:52.158Z,2.92
2022-10-27T14:26:59.173Z,4.25
2022-10-27T14:29:01.561Z,2.83
2022-10-27T14:31:18.875Z,3.40
2022-10-27T14:33:26.115Z,4.65
2022-10-27T14:35:30.122Z,6.05
2022-10-27T14:37:35.447Z,4.60
2022-10-27T14:39:37.812Z,2.60
2022-10-27T14:41:46.713Z,2.05
2022-10-27T14:43:52.915Z,5.10
2022-10-27T14:46:00.894Z,2.25
2022-10-27T14:48:05.550Z,3.22
2022-10-27T14:50:19.619Z,3.90
2022-10-27T14:52:30.765Z,2.75
2022-10-27T14:54:32.639Z,2.92
2022-10-27T14:56:34.777Z,3.10
2022-10-27T14:58:36.377Z,2.15
2022-10-27T15:00:38.705Z,2.47
2022-10-27T15:02:40.374Z,2.90
2022-10-27T15:04:42.068Z,3.30
2022-10-27T15:06:46.182Z,3.45
2022-10-27T15:08:50.689Z,1.67
2022-10-27T15:11:00.298Z,6.07
2022-10-27T15:13:02.544Z,2.92
2022-10-27T15:15:05.158Z,2.88
2022-10-27T15:17:09.637Z,1.67
2022-10-27T15:19:18.620Z,3.72
2022-10-27T15:21:26.876Z,1.67
2022-10-27T15:23:29.084Z,2.03
2022-10-27T15:25:31.577Z,3.45
2022-10-27T15:27:34.452Z,3.10
2022-10-27T15:29:36.632Z,3.80
2022-10-27T15:31:40.856Z,2.33
2022-10-27T15:33:44.556Z,2.92
2022-10-27T15:35:46.168Z,2.10
2022-10-27T15:37:47.765Z,3.78
2022-10-27T15:39:50.053Z,13.77
2022-10-27T15:41:52.313Z,12.60
2022-10-27T15:44:03.207Z,5.53
2022-10-27T15:46:31.280Z,6.88
2022-10-27T15:48:38.191Z,10.35
2022-10-27T15:50:43.145Z,9.32
2022-10-27T15:52:44.887Z,6.63
2022-10-27T15:54:54.510Z,6.63
2022-10-27T15:56:56.804Z,18.00
2022-10-27T15:59:23.510Z,14.32
2022-10-27T16:01:33.401Z,33.10
2022-10-27T16:03:38.519Z,27.05
2022-10-27T16:05:42.421Z,25.40
2022-10-27T16:07:44.056Z,24.27
2022-10-27T16:09:47.097Z,24.13
2022-10-27T16:11:48.733Z,22.38
2022-10-27T16:13:59.225Z,16.92
2022-10-27T16:16:01.454Z,15.48
2022-10-27T16:18:03.095Z,13.77
2022-10-27T16:20:08.197Z,12.55
2022-10-27T16:22:13.193Z,13.10
2022-10-27T16:24:22.385Z,17.02
2022-10-27T16:26:27.431Z,12.20
2022-10-27T16:28:35.928Z,13.93
2022-10-27T16:30:37.548Z,8.35
2022-10-27T16:32:39.150Z,12.05
2022-10-27T16:34:40.741Z,10.38
2022-10-27T16:36:42.359Z,10.25
2022-10-27T16:38:44.607Z,14.02
2022-10-27T16:40:48.153Z,11.27
2022-10-27T16:42:52.940Z,17.75
2022-10-27T16:44:54.755Z,14.38
2022-10-27T16:46:56.752Z,14.80
2022-10-27T16:48:58.452Z,9.85
2022-10-27T16:51:01.399Z,13.88
2022-10-27T16:53:03.041Z,10.23
2022-10-27T16:55:09.494Z,8.63
2022-10-27T16:57:11.178Z,8.43
2022-10-27T16:59:12.799Z,10.45
2022-10-27T17:01:17.432Z,12.65
2022-10-27T17:03:19.222Z,13.10
2022-10-27T17:05:20.844Z,16.77
2022-10-27T17:07:22.475Z,5.72
2022-10-27T17:09:24.098Z,22.20
2022-10-27T17:11:25.820Z,10.07
2022-10-27T17:13:27.429Z,8.20
2022-10-27T17:15:29.058Z,11.50
2022-10-27T17:17:30.653Z,16.67
2022-10-27T17:19:32.298Z,12.27
2022-10-27T17:21:35.096Z,10.98
2022-10-27T17:23:37.210Z,11.95
2022-10-27T17:25:38.861Z,11.32
2022-10-27T17:27:40.506Z,6.43
2022-10-27T17:29:42.497Z,9.02
2022-10-27T17:31:44.180Z,9.60
2022-10-27T17:33:45.829Z,9.45
2022-10-27T17:35:57.613Z,7.40
2022-10-27T17:37:59.417Z,6.68
2022-10-27T17:40:01.071Z,18.77
2022-10-27T17:42:02.862Z,6.85
2022-10-27T17:44:04.502Z,6.60
2022-10-27T17:46:15.085Z,10.02
2022-10-27T17:48:16.715Z,10.88
2022-10-27T17:50:18.333Z,12.57
2022-10-27T17:52:20.003Z,7.18
2022-10-27T17:54:21.673Z,7.60
2022-10-27T17:56:25.148Z,10.13
2022-10-27T17:58:34.091Z,7.13
2022-10-27T18:00:41.659Z,9.83
2022-10-27T18:02:43.319Z,6.00
2022-10-27T18:04:46.685Z,7.97
2022-10-27T18:06:48.270Z,9.38
2022-10-27T18:08:53.727Z,7.40
2022-10-27T18:11:11.808Z,8.52
2022-10-27T18:13:13.490Z,5.18
2022-10-27T18:15:34.893Z,5.05
2022-10-27T18:17:37.330Z,5.43
2022-10-27T18:19:40.751Z,7.03
2022-10-27T18:21:45.100Z,3.70
2022-10-27T18:23:55.036Z,8.55
2022-10-27T18:26:00.879Z,5.60
2022-10-27T18:28:02.473Z,10.52
2022-10-27T18:30:04.760Z,6.85
2022-10-27T18:32:06.409Z,4.80
2022-10-27T18:34:10.747Z,10.10
2022-10-27T18:36:14.945Z,9.02
2022-10-27T18:38:16.571Z,8.90
2022-10-27T18:40:18.481Z,5.00
2022-10-27T18:42:20.080Z,4.72
2022-10-27T18:44:21.756Z,8.60
2022-10-27T18:46:24.644Z,4.20
2022-10-27T18:48:26.512Z,5.72
2022-10-27T18:50:28.130Z,7.97
2022-10-27T18:52:29.711Z,7.28
2022-10-27T18:54:31.465Z,10.65
2022-10-27T18:56:33.493Z,10.77
2022-10-27T18:58:35.864Z,7.40
2022-10-27T19:00:37.448Z,8.75
2022-10-27T19:02:39.216Z,6.90
2022-10-27T19:04:40.955Z,6.10
2022-10-27T19:06:42.634Z,6.20
2022-10-27T19:08:44.329Z,7.53
2022-10-27T19:10:45.937Z,4.88
2022-10-27T19:12:47.597Z,6.55
2022-10-27T19:14:49.176Z,4.80
2022-10-27T19:16:54.663Z,4.95
2022-10-27T19:18:59.090Z,6.80
2022-10-27T19:21:03.594Z,5.53
2022-10-27T19:23:05.242Z,4.70
2022-10-27T19:25:07.392Z,3.63
2022-10-27T19:27:09.020Z,5.05
2022-10-27T19:29:10.709Z,6.65
2022-10-27T19:31:17.029Z,8.50
2022-10-27T19:33:19.249Z,4.38
2022-10-27T19:35:20.835Z,7.22
2022-10-27T19:37:22.454Z,5.10
2022-10-27T19:39:24.084Z,4.32
2022-10-27T19:41:28.409Z,9.57
2022-10-27T19:43:30.162Z,4.72
2022-10-27T19:45:31.789Z,9.20
2022-10-27T19:47:34.020Z,6.75
2022-10-27T19:49:35.672Z,4.47
2022-10-27T19:51:39.167Z,3.85
2022-10-27T19:53:43.144Z,4.60
2022-10-27T19:55:44.747Z,7.28
2022-10-27T19:57:46.553Z,5.20
2022-10-27T19:59:48.267Z,3.50
2022-10-27T20:01:52.517Z,6.65
2022-10-27T20:03:54.252Z,6.78
2022-10-27T20:05:56.479Z,7.65
2022-10-27T20:07:58.564Z,7.05
2022-10-27T20:10:00.191Z,6.13
2022-10-27T20:12:01.846Z,3.55
2022-10-27T20:14:03.653Z,4.93
2022-10-27T20:16:06.170Z,5.45
2022-10-27T20:18:08.639Z,2.63
2022-10-27T20:20:10.475Z,6.00
2022-10-27T20:22:12.057Z,9.88
2022-10-27T20:24:14.412Z,5.45
2022-10-27T20:26:33.416Z,4.75
2022-10-27T20:28:35.329Z,4.20
2022-10-27T20:30:36.929Z,6.55
2022-10-27T20:32:42.818Z,4.95
2022-10-27T20:34:45.415Z,5.68
2022-10-27T20:36:47.093Z,6.15
2022-10-27T20:38:48.760Z,6.55
2022-10-27T20:40:50.366Z,3.13
2022-10-27T20:42:52.247Z,6.05
2022-10-27T20:44:54.049Z,3.67
2022-10-27T20:46:55.660Z,6.55
2022-10-27T20:48:58.757Z,4.45
2022-10-27T20:51:06.913Z,6.45
2022-10-27T20:53:08.520Z,4.20
2022-10-27T20:55:10.091Z,5.82
2022-10-27T20:57:11.674Z,5.25
2022-10-27T20:59:13.325Z,4.13
2022-10-27T21:01:37.571Z,2.80
2022-10-27T21:03:39.315Z,3.63
2022-10-27T21:05:41.040Z,8.18
2022-10-27T21:07:42.665Z,4.93
2022-10-27T21:09:44.246Z,5.28
2022-10-27T21:11:47.074Z,3.13
2022-10-27T21:13:53.628Z,5.97
2022-10-27T21:15:59.420Z,4.28
2022-10-27T21:18:01.006Z,5.50
2022-10-27T21:20:02.746Z,7.57
2022-10-27T21:22:05.639Z,6.53
2022-10-27T21:24:08.116Z,3.85
2022-10-27T21:26:11.157Z,4.10
2022-10-27T21:28:12.942Z,5.93
2022-10-27T21:30:14.626Z,3.38
2022-10-27T21:32:16.324Z,2.97
2022-10-27T21:34:17.928Z,3.28
2022-10-27T21:36:19.910Z,3.50
2022-10-27T21:38:21.543Z,3.95
2022-10-27T21:40:23.622Z,3.22
2022-10-27T21:42:25.218Z,2.58
2022-10-27T21:44:27.771Z,4.80
2022-10-27T21:46:30.405Z,2.45
2022-10-27T21:48:32.196Z,4.40
2022-10-27T21:50:33.844Z,4.60
2022-10-27T21:52:36.346Z,4.30
2022-10-27T21:54:37.952Z,4.35
2022-10-27T21:56:42.319Z,4.68
2022-10-27T21:58:43.965Z,3.67
2022-10-27T22:00:45.577Z,2.50
2022-10-27T22:02:47.226Z,3.88
2022-10-27T22:04:48.815Z,2.17
2022-10-27T22:06:50.399Z,3.05
2022-10-27T22:08:52.722Z,2.42
2022-10-27T22:10:54.436Z,4.38
2022-10-27T22:12:56.071Z,2.20
2022-10-27T22:14:57.908Z,2.83
2022-10-27T22:16:59.601Z,3.13
2022-10-27T22:19:02.873Z,5.03
2022-10-27T22:21:07.909Z,2.45
2022-10-27T22:23:09.501Z,4.97
2022-10-27T22:25:11.181Z,9.00
2022-10-27T22:27:15.698Z,2.67
2022-10-27T22:29:19.996Z,3.17
2022-10-27T22:31:33.245Z,3.95
2022-10-27T22:33:35.203Z,3.65
2022-10-27T22:35:36.804Z,3.05
2022-10-27T22:37:38.380Z,3.72
2022-10-27T22:39:39.986Z,3.80
2022-10-27T22:41:41.654Z,3.75
2022-10-27T22:43:44.106Z,2.85
2022-10-27T22:45:53.233Z,3.92
2022-10-27T22:47:55.249Z,4.32
2022-10-27T22:49:57.817Z,3.58
2022-10-27T22:51:59.505Z,5.00
2022-10-27T22:54:01.339Z,5.03
2022-10-27T22:56:27.224Z,2.30
2022-10-27T22:58:28.824Z,5.68
2022-10-27T23:00:30.424Z,2.90
2022-10-27T23:02:32.152Z,4.18
2022-10-27T23:04:33.863Z,4.72
2022-10-27T23:06:37.093Z,4.57
2022-10-27T23:08:38.751Z,4.95
2022-10-27T23:10:40.350Z,4.13
2022-10-27T23:12:41.927Z,4.25
2022-10-27T23:14:46.395Z,3.10
2022-10-27T23:16:50.471Z,2.33
2022-10-27T23:18:52.070Z,3.97
2022-10-27T23:21:00.846Z,4.72
2022-10-27T23:23:02.432Z,4.50
2022-10-27T23:25:04.156Z,5.18
2022-10-27T23:27:05.787Z,3.03
2022-10-27T23:29:10.595Z,3.67
2022-10-27T23:31:12.176Z,4.38
2022-10-27T23:33:17.317Z,3.05
2022-10-27T23:35:18.888Z,4.63
2022-10-27T23:37:20.476Z,4.28
2022-10-27T23:39:22.078Z,3.35
2022-10-27T23:41:24.152Z,3.47
2022-10-27T23:43:29.326Z,3.67
2022-10-27T23:45:30.928Z,5.55
2022-10-27T23:47:32.521Z,3.97
2022-10-27T23:49:34.130Z,4.05
2022-10-27T23:51:35.842Z,2.97
2022-10-27T23:53:38.039Z,2.60
2022-10-27T23:55:39.655Z,2.47
2022-10-27T23:57:41.227Z,2.30
2022-10-27T23:59:42.887Z,4.15
